Time;durP1;ratioP1;P1;durP2;ratioP2;P2;SDS_P1;SDS_P2;PMS_P1;PMS_P2;Temp;Humidity;BMP_temperature;BMP_pressure;BME280_temperature;BME280_humidity;BME280_pressure;Samples;Min_cycle;Max_cycle;Signal;HPM_P1;HPM_P2
2023/06/17 00:00:10;;;;;;;7.53;3.50;;;;;;;;;;5089330;28;20428;-63
2023/06/17 00:02:36;;;;;;;4.78;3.33;;;;;;;;;;5093331;28;20324;-64
2023/06/17 00:05:02;;;;;;;7.18;3.83;;;;;;;;;;5092870;28;20020;-64
2023/06/17 00:07:27;;;;;;;5.65;3.95;;;;;;;;;;5093555;28;20016;-64
2023/06/17 00:09:52;;;;;;;4.97;3.38;;;;;;;;;;5093425;28;20516;-64
2023/06/17 00:12:18;;;;;;;6.23;3.80;;;;;;;;;;5092119;28;20374;-64
2023/06/17 00:14:43;;;;;;;5.30;3.42;;;;;;;;;;5082166;28;20283;-64
2023/06/17 00:17:09;;;;;;;5.72;3.30;;;;;;;;;;5090373;28;20023;-64
2023/06/17 00:19:35;;;;;;;5.00;3.28;;;;;;;;;;5093511;28;20020;-64
2023/06/17 00:22:00;;;;;;;10.30;3.75;;;;;;;;;;5092916;28;20039;-64
2023/06/17 00:24:26;;;;;;;4.20;3.15;;;;;;;;;;5089798;28;20032;-64
2023/06/17 00:26:51;;;;;;;4.85;3.25;;;;;;;;;;5093463;28;20024;-64
2023/06/17 00:29:16;;;;;;;9.23;3.60;;;;;;;;;;5092815;28;20155;-64
2023/06/17 00:31:41;;;;;;;6.65;3.90;;;;;;;;;;5091928;28;20077;-64
2023/06/17 00:34:07;;;;;;;4.37;3.10;;;;;;;;;;5086932;28;20028;-64
2023/06/17 00:36:32;;;;;;;8.13;3.75;;;;;;;;;;5091710;28;20282;-64
2023/06/17 00:38:57;;;;;;;5.85;3.20;;;;;;;;;;5092668;28;20382;-64
2023/06/17 00:41:22;;;;;;;4.93;3.63;;;;;;;;;;5087179;28;20459;-64
2023/06/17 00:43:48;;;;;;;7.47;3.40;;;;;;;;;;5084450;28;20416;-64
2023/06/17 00:46:32;;;;;;;6.35;3.80;;;;;;;;;;5092633;28;20044;-64
2023/06/17 00:48:57;;;;;;;5.05;3.38;;;;;;;;;;5091773;28;20066;-64
2023/06/17 00:51:23;;;;;;;8.23;4.55;;;;;;;;;;5092451;28;20440;-64
2023/06/17 00:53:48;;;;;;;7.72;3.95;;;;;;;;;;5092462;28;20028;-64
2023/06/17 00:56:17;;;;;;;7.47;3.60;;;;;;;;;;5085530;28;20479;-63
2023/06/17 00:58:42;;;;;;;6.25;4.10;;;;;;;;;;5086095;28;20497;-63
2023/06/17 01:01:07;;;;;;;12.77;4.53;;;;;;;;;;5092640;28;20021;-64
2023/06/17 01:03:34;;;;;;;5.97;3.80;;;;;;;;;;5093103;28;20039;-64
2023/06/17 01:06:03;;;;;;;5.95;3.72;;;;;;;;;;5079844;28;20742;-64
2023/06/17 01:08:33;;;;;;;5.95;3.65;;;;;;;;;;5092493;28;20121;-64
2023/06/17 01:11:06;;;;;;;5.13;3.28;;;;;;;;;;5092281;28;20031;-63
2023/06/17 01:13:31;;;;;;;6.65;3.80;;;;;;;;;;5092299;28;20016;-64
2023/06/17 01:15:57;;;;;;;7.32;4.18;;;;;;;;;;5091635;28;20028;-64
2023/06/17 01:18:24;;;;;;;5.40;3.45;;;;;;;;;;5091327;28;20039;-64
2023/06/17 01:20:52;;;;;;;7.32;3.65;;;;;;;;;;5089824;28;20024;-63
2023/06/17 01:23:18;;;;;;;6.70;3.60;;;;;;;;;;5088490;28;20021;-63
2023/06/17 01:25:45;;;;;;;5.82;3.42;;;;;;;;;;5088833;28;20034;-63
2023/06/17 01:28:15;;;;;;;5.82;4.43;;;;;;;;;;5091879;28;20106;-63
2023/06/17 01:30:41;;;;;;;10.30;3.60;;;;;;;;;;5092292;28;20024;-64
2023/06/17 01:33:06;;;;;;;6.35;3.45;;;;;;;;;;5091137;28;20081;-64
2023/06/17 01:35:31;;;;;;;5.63;3.72;;;;;;;;;;5092050;28;20024;-64
2023/06/17 01:38:00;;;;;;;7.50;3.75;;;;;;;;;;5090361;28;20031;-64
2023/06/17 01:40:28;;;;;;;5.03;3.70;;;;;;;;;;5091285;28;20024;-64
2023/06/17 01:42:53;;;;;;;7.18;4.30;;;;;;;;;;5074240;28;20022;-64
2023/06/17 01:45:19;;;;;;;5.53;4.20;;;;;;;;;;5084226;28;20469;-65
2023/06/17 01:47:44;;;;;;;5.05;3.53;;;;;;;;;;5091256;28;20098;-64
2023/06/17 01:50:10;;;;;;;4.63;3.53;;;;;;;;;;5092011;28;20035;-64
2023/06/17 01:52:35;;;;;;;5.88;3.83;;;;;;;;;;5091357;28;20020;-64
2023/06/17 01:55:01;;;;;;;5.53;3.45;;;;;;;;;;5089865;28;20020;-64
2023/06/17 01:57:26;;;;;;;5.47;4.05;;;;;;;;;;5090989;28;20424;-64
2023/06/17 01:59:55;;;;;;;9.40;3.97;;;;;;;;;;5091471;28;20035;-64
2023/06/17 02:02:21;;;;;;;5.68;4.03;;;;;;;;;;5091687;28;20019;-64
2023/06/17 02:04:49;;;;;;;6.05;4.15;;;;;;;;;;5091089;28;20029;-63
2023/06/17 02:07:16;;;;;;;8.07;4.20;;;;;;;;;;5091818;28;20020;-63
2023/06/17 02:09:41;;;;;;;10.82;4.53;;;;;;;;;;5091372;28;20103;-64
2023/06/17 02:12:07;;;;;;;7.00;4.10;;;;;;;;;;5091045;28;20095;-63
2023/06/17 02:14:33;;;;;;;5.80;4.18;;;;;;;;;;5090270;28;20016;-64
2023/06/17 02:16:58;;;;;;;5.25;3.72;;;;;;;;;;5091345;28;20061;-64
2023/06/17 02:19:23;;;;;;;7.22;4.55;;;;;;;;;;5090560;28;20429;-64
2023/06/17 02:21:49;;;;;;;5.55;4.43;;;;;;;;;;5088525;28;20016;-64
2023/06/17 02:24:14;;;;;;;9.95;5.25;;;;;;;;;;5081128;28;20030;-64
2023/06/17 02:26:41;;;;;;;5.70;4.68;;;;;;;;;;5090854;28;20423;-64
2023/06/17 02:29:06;;;;;;;7.57;4.50;;;;;;;;;;5091408;28;20078;-64
2023/06/17 02:31:32;;;;;;;17.73;4.25;;;;;;;;;;5090787;28;20028;-64
2023/06/17 02:33:57;;;;;;;7.90;4.25;;;;;;;;;;5091152;28;20020;-63
2023/06/17 02:36:23;;;;;;;6.90;4.47;;;;;;;;;;5089818;28;20020;-63
2023/06/17 02:38:50;;;;;;;9.52;4.82;;;;;;;;;;5091045;28;20089;-63
2023/06/17 02:41:15;;;;;;;6.82;4.80;;;;;;;;;;5089075;28;20024;-64
2023/06/17 02:43:40;;;;;;;10.65;4.65;;;;;;;;;;5090922;28;20024;-64
2023/06/17 02:46:06;;;;;;;5.75;4.50;;;;;;;;;;5057163;28;20051;-63
2023/06/17 02:48:31;;;;;;;6.43;4.83;;;;;;;;;;5084996;28;20032;-64
2023/06/17 02:50:56;;;;;;;6.82;4.30;;;;;;;;;;5089520;28;20341;-64
2023/06/17 02:53:22;;;;;;;6.35;4.50;;;;;;;;;;5090755;28;20028;-63
2023/06/17 02:55:48;;;;;;;6.93;4.90;;;;;;;;;;5090542;28;20027;-63
2023/06/17 02:58:18;;;;;;;7.25;4.60;;;;;;;;;;5088914;28;20044;-63
2023/06/17 03:00:45;;;;;;;6.90;4.32;;;;;;;;;;5090768;28;20020;-63
2023/06/17 03:03:10;;;;;;;7.80;4.90;;;;;;;;;;5090150;28;20050;-63
2023/06/17 03:05:37;;;;;;;7.20;3.92;;;;;;;;;;5089790;28;20016;-63
2023/06/17 03:08:03;;;;;;;7.80;4.65;;;;;;;;;;5087969;28;20028;-63
2023/06/17 03:10:28;;;;;;;6.05;4.47;;;;;;;;;;5084988;28;20536;-63
2023/06/17 03:12:53;;;;;;;7.65;5.13;;;;;;;;;;5089769;28;20028;-64
2023/06/17 03:15:19;;;;;;;7.72;5.00;;;;;;;;;;5090029;28;20074;-64
2023/06/17 03:17:44;;;;;;;7.35;4.65;;;;;;;;;;5090026;28;20032;-64
2023/06/17 03:20:10;;;;;;;7.80;4.88;;;;;;;;;;5090159;28;20031;-63
2023/06/17 03:22:35;;;;;;;7.30;5.05;;;;;;;;;;5090152;28;20021;-64
2023/06/17 03:25:01;;;;;;;7.93;5.38;;;;;;;;;;5090066;28;20110;-62
2023/06/17 03:27:27;;;;;;;7.22;4.63;;;;;;;;;;5089525;28;20455;-63
2023/06/17 03:29:52;;;;;;;7.43;4.28;;;;;;;;;;5089849;28;20031;-63
2023/06/17 03:32:17;;;;;;;8.52;4.57;;;;;;;;;;5093240;28;20024;-63
2023/06/17 03:34:43;;;;;;;6.95;4.57;;;;;;;;;;5094031;28;20096;-63
2023/06/17 03:37:09;;;;;;;6.78;4.93;;;;;;;;;;5092486;28;20390;-63
2023/06/17 03:39:34;;;;;;;8.75;5.05;;;;;;;;;;5082939;28;20490;-63
2023/06/17 03:42:00;;;;;;;6.53;4.95;;;;;;;;;;5093248;28;20107;-63
2023/06/17 03:44:25;;;;;;;6.05;4.20;;;;;;;;;;5092796;28;20024;-63
2023/06/17 03:46:51;;;;;;;8.97;4.83;;;;;;;;;;5083136;28;20031;-63
2023/06/17 03:49:16;;;;;;;8.75;5.25;;;;;;;;;;5072515;28;20281;-63
2023/06/17 03:51:41;;;;;;;9.75;5.55;;;;;;;;;;5093804;28;20103;-63
2023/06/17 03:54:07;;;;;;;9.23;5.13;;;;;;;;;;5093986;28;20379;-63
2023/06/17 03:56:32;;;;;;;7.60;4.43;;;;;;;;;;5093223;28;20671;-63
2023/06/17 03:58:57;;;;;;;7.65;5.22;;;;;;;;;;5092946;28;20055;-63
2023/06/17 04:01:22;;;;;;;7.77;4.90;;;;;;;;;;5093372;28;20455;-63
2023/06/17 04:03:48;;;;;;;7.18;4.60;;;;;;;;;;5083491;28;20617;-62
2023/06/17 04:06:14;;;;;;;7.40;4.65;;;;;;;;;;5092075;28;20024;-63
2023/06/17 04:08:39;;;;;;;6.22;4.72;;;;;;;;;;5093985;28;20074;-62
2023/06/17 04:11:04;;;;;;;5.47;3.92;;;;;;;;;;5091622;28;20054;-64
2023/06/17 04:13:30;;;;;;;6.32;4.20;;;;;;;;;;5092894;28;20067;-64
2023/06/17 04:15:56;;;;;;;5.57;4.22;;;;;;;;;;5086662;28;20116;-64
2023/06/17 04:18:21;;;;;;;6.50;4.25;;;;;;;;;;5093123;28;20035;-64
2023/06/17 04:20:47;;;;;;;6.63;4.53;;;;;;;;;;5069129;28;20041;-64
2023/06/17 04:23:12;;;;;;;6.03;4.50;;;;;;;;;;5093278;28;20095;-64
2023/06/17 04:25:37;;;;;;;7.65;4.43;;;;;;;;;;5092522;28;20027;-64
2023/06/17 04:28:03;;;;;;;6.03;4.18;;;;;;;;;;5087832;28;20091;-64
2023/06/17 04:30:30;;;;;;;5.88;4.10;;;;;;;;;;5092693;28;20386;-64
2023/06/17 04:33:00;;;;;;;6.47;4.80;;;;;;;;;;5092943;28;20032;-64
2023/06/17 04:35:26;;;;;;;7.28;4.07;;;;;;;;;;5092904;28;20020;-64
2023/06/17 04:37:53;;;;;;;6.25;4.63;;;;;;;;;;5093106;28;20040;-64
2023/06/17 04:40:23;;;;;;;7.30;5.20;;;;;;;;;;5092961;28;20170;-64
2023/06/17 04:42:49;;;;;;;8.15;4.40;;;;;;;;;;5091751;28;20012;-64
2023/06/17 04:45:15;;;;;;;7.28;4.82;;;;;;;;;;5092463;28;20051;-64
2023/06/17 04:47:41;;;;;;;7.43;5.13;;;;;;;;;;5092902;28;20020;-64
2023/06/17 04:50:06;;;;;;;7.28;5.20;;;;;;;;;;5092598;28;20032;-64
2023/06/17 04:52:31;;;;;;;7.47;4.68;;;;;;;;;;5092629;28;20073;-64
2023/06/17 04:54:57;;;;;;;7.53;5.03;;;;;;;;;;5092240;28;20421;-64
2023/06/17 04:57:22;;;;;;;8.40;4.85;;;;;;;;;;5090263;28;20088;-65
2023/06/17 04:59:48;;;;;;;5.72;4.43;;;;;;;;;;5092370;28;20118;-64
2023/06/17 05:02:13;;;;;;;8.70;4.47;;;;;;;;;;5092570;28;20397;-64
2023/06/17 05:04:38;;;;;;;6.03;4.60;;;;;;;;;;5092245;28;20024;-64
2023/06/17 05:07:04;;;;;;;6.35;4.63;;;;;;;;;;5092573;28;20032;-64
2023/06/17 05:09:29;;;;;;;8.30;4.95;;;;;;;;;;5092483;28;20024;-64
2023/06/17 05:11:54;;;;;;;7.05;4.90;;;;;;;;;;5091823;28;20470;-64
2023/06/17 05:14:20;;;;;;;5.95;4.43;;;;;;;;;;5073299;28;20024;-64
2023/06/17 05:16:45;;;;;;;7.30;4.88;;;;;;;;;;5083517;28;20020;-64
2023/06/17 05:19:10;;;;;;;6.97;4.75;;;;;;;;;;5085096;28;20058;-65
2023/06/17 05:21:35;;;;;;;8.05;5.25;;;;;;;;;;5090808;28;20031;-64
2023/06/17 05:24:01;;;;;;;9.73;5.50;;;;;;;;;;5090254;28;20028;-64
2023/06/17 05:26:27;;;;;;;6.57;5.32;;;;;;;;;;5081698;28;20125;-64
2023/06/17 05:28:52;;;;;;;8.73;6.55;;;;;;;;;;5076729;28;20029;-64
2023/06/17 05:31:17;;;;;;;9.68;6.50;;;;;;;;;;5092266;28;20063;-64
2023/06/17 05:33:42;;;;;;;9.35;5.78;;;;;;;;;;5092191;28;20097;-64
2023/06/17 05:36:08;;;;;;;9.13;6.07;;;;;;;;;;5091095;28;20111;-64
2023/06/17 05:38:33;;;;;;;7.70;5.97;;;;;;;;;;5090918;28;20320;-65
2023/06/17 05:40:58;;;;;;;8.45;6.20;;;;;;;;;;5091516;28;20107;-65
2023/06/17 05:43:27;;;;;;;10.05;6.28;;;;;;;;;;5091415;28;20123;-64
2023/06/17 05:45:52;;;;;;;10.23;5.95;;;;;;;;;;5091360;28;20024;-64
2023/06/17 05:48:18;;;;;;;7.78;5.55;;;;;;;;;;5091427;28;20050;-64
2023/06/17 05:50:43;;;;;;;7.28;4.95;;;;;;;;;;5091134;28;20134;-64
2023/06/17 05:53:08;;;;;;;9.00;5.50;;;;;;;;;;5091243;28;20020;-64
2023/06/17 05:55:35;;;;;;;13.05;6.30;;;;;;;;;;5085294;28;20289;-65
2023/06/17 05:58:00;;;;;;;8.30;5.30;;;;;;;;;;5072079;28;20112;-65
2023/06/17 06:00:25;;;;;;;10.20;5.95;;;;;;;;;;5091597;28;20103;-65
2023/06/17 06:02:50;;;;;;;8.10;5.72;;;;;;;;;;5086931;28;20085;-64
2023/06/17 06:05:16;;;;;;;7.70;5.10;;;;;;;;;;5090668;28;20059;-65
2023/06/17 06:07:43;;;;;;;10.50;4.57;;;;;;;;;;5091452;28;20020;-64
2023/06/17 06:10:08;;;;;;;7.85;4.97;;;;;;;;;;5091081;28;20331;-65
2023/06/17 06:12:34;;;;;;;12.45;4.30;;;;;;;;;;5091439;28;20036;-64
2023/06/17 06:15:00;;;;;;;8.07;5.13;;;;;;;;;;5090914;28;20032;-65
2023/06/17 06:17:25;;;;;;;12.30;5.90;;;;;;;;;;5091343;28;20096;-64
2023/06/17 06:19:51;;;;;;;10.52;5.32;;;;;;;;;;5089217;28;20281;-64
2023/06/17 06:22:17;;;;;;;8.15;5.88;;;;;;;;;;5080877;28;20036;-65
2023/06/17 06:24:42;;;;;;;8.38;6.82;;;;;;;;;;5087541;28;20021;-65
2023/06/17 06:27:07;;;;;;;8.10;6.60;;;;;;;;;;5080414;28;20513;-65
2023/06/17 06:29:33;;;;;;;10.37;7.80;;;;;;;;;;5087282;28;20109;-65
2023/06/17 06:31:58;;;;;;;11.83;8.53;;;;;;;;;;5089234;28;20355;-65
2023/06/17 06:34:23;;;;;;;8.80;7.57;;;;;;;;;;5086842;28;20289;-64
2023/06/17 06:36:48;;;;;;;11.38;8.27;;;;;;;;;;5081941;28;20313;-65
2023/06/17 06:39:13;;;;;;;11.60;8.00;;;;;;;;;;5091124;28;20086;-65
2023/06/17 06:41:39;;;;;;;12.77;8.80;;;;;;;;;;5090524;28;20355;-65
2023/06/17 06:44:04;;;;;;;10.80;8.02;;;;;;;;;;5083407;28;20345;-64
2023/06/17 06:46:31;;;;;;;12.80;8.98;;;;;;;;;;5090572;28;20518;-64
2023/06/17 06:48:56;;;;;;;10.55;8.55;;;;;;;;;;5091062;28;20023;-64
2023/06/17 06:51:22;;;;;;;9.68;7.32;;;;;;;;;;5090943;28;20417;-64
2023/06/17 06:53:48;;;;;;;11.27;8.10;;;;;;;;;;5090556;28;20066;-64
2023/06/17 06:56:14;;;;;;;15.30;8.90;;;;;;;;;;5090177;28;20097;-65
2023/06/17 06:58:39;;;;;;;12.05;7.43;;;;;;;;;;5090698;28;20016;-65
2023/06/17 07:01:04;;;;;;;10.63;7.78;;;;;;;;;;5090990;28;20115;-64
2023/06/17 07:03:30;;;;;;;10.65;7.05;;;;;;;;;;5090571;28;20047;-64
2023/06/17 07:05:55;;;;;;;10.00;7.38;;;;;;;;;;5092897;28;20035;-64
2023/06/17 07:08:20;;;;;;;9.40;7.25;;;;;;;;;;5094243;28;20051;-64
2023/06/17 07:10:45;;;;;;;10.70;7.00;;;;;;;;;;5093030;28;20027;-64
2023/06/17 07:13:11;;;;;;;16.25;7.20;;;;;;;;;;5090530;28;20709;-64
2023/06/17 07:15:36;;;;;;;9.90;7.00;;;;;;;;;;5093119;28;20049;-64
2023/06/17 07:18:01;;;;;;;10.48;6.10;;;;;;;;;;5093242;28;20597;-64
2023/06/17 07:20:27;;;;;;;8.33;5.23;;;;;;;;;;5093702;28;20390;-64
2023/06/17 07:22:52;;;;;;;11.48;6.43;;;;;;;;;;5093587;28;20270;-65
2023/06/17 07:25:17;;;;;;;9.03;5.83;;;;;;;;;;5094151;28;20031;-65
2023/06/17 07:27:42;;;;;;;10.95;6.35;;;;;;;;;;5093915;28;20364;-65
2023/06/17 07:30:08;;;;;;;9.27;6.80;;;;;;;;;;5092493;28;20382;-63
2023/06/17 07:32:33;;;;;;;12.45;5.60;;;;;;;;;;5089460;28;20377;-64
2023/06/17 07:34:58;;;;;;;12.65;5.82;;;;;;;;;;5094338;28;20024;-65
2023/06/17 07:37:23;;;;;;;8.10;5.17;;;;;;;;;;5092913;28;20089;-65
2023/06/17 07:39:49;;;;;;;8.75;5.97;;;;;;;;;;5093488;28;20280;-65
2023/06/17 07:42:15;;;;;;;7.87;4.83;;;;;;;;;;5092884;28;20016;-64
2023/06/17 07:44:41;;;;;;;8.65;5.95;;;;;;;;;;5092874;28;20756;-65
2023/06/17 07:47:06;;;;;;;8.47;5.53;;;;;;;;;;5092917;28;20020;-64
2023/06/17 07:49:33;;;;;;;7.45;5.32;;;;;;;;;;5093195;28;20817;-65
2023/06/17 07:51:58;;;;;;;6.15;4.70;;;;;;;;;;5093649;28;20382;-65
2023/06/17 07:54:23;;;;;;;8.38;4.68;;;;;;;;;;5092676;28;20031;-65
2023/06/17 07:56:48;;;;;;;7.55;4.70;;;;;;;;;;5092887;28;20047;-65
2023/06/17 07:59:14;;;;;;;9.80;4.83;;;;;;;;;;5092913;28;20027;-65
2023/06/17 08:01:39;;;;;;;16.92;5.55;;;;;;;;;;5093747;28;20866;-64
2023/06/17 08:04:04;;;;;;;9.03;4.80;;;;;;;;;;5092647;28;20023;-64
2023/06/17 08:06:30;;;;;;;13.50;5.27;;;;;;;;;;5093094;28;20265;-64
2023/06/17 08:08:55;;;;;;;6.57;4.78;;;;;;;;;;5093376;28;20280;-64
2023/06/17 08:11:21;;;;;;;8.87;5.10;;;;;;;;;;5093489;28;20097;-64
2023/06/17 08:13:46;;;;;;;10.73;4.68;;;;;;;;;;5093113;28;20756;-64
2023/06/17 08:16:11;;;;;;;8.43;5.23;;;;;;;;;;5092348;28;20035;-64
2023/06/17 08:18:36;;;;;;;10.32;5.72;;;;;;;;;;5092764;28;20274;-65
2023/06/17 08:21:02;;;;;;;10.13;5.33;;;;;;;;;;5093034;28;20099;-64
2023/06/17 08:23:27;;;;;;;7.78;4.80;;;;;;;;;;5092429;28;20320;-64
2023/06/17 08:25:53;;;;;;;7.75;4.93;;;;;;;;;;5092548;28;20020;-64
2023/06/17 08:28:18;;;;;;;8.27;5.72;;;;;;;;;;5092184;28;20088;-64
2023/06/17 08:30:43;;;;;;;10.50;5.27;;;;;;;;;;5092591;28;20034;-64
2023/06/17 08:33:09;;;;;;;9.85;4.68;;;;;;;;;;5092950;28;20316;-64
2023/06/17 08:35:34;;;;;;;9.85;5.05;;;;;;;;;;5092906;28;20024;-63
2023/06/17 08:37:59;;;;;;;8.40;5.23;;;;;;;;;;5092561;28;20529;-64
2023/06/17 08:40:25;;;;;;;6.53;4.38;;;;;;;;;;5092810;28;20651;-64
2023/06/17 08:42:55;;;;;;;6.50;4.32;;;;;;;;;;5092222;28;20375;-64
2023/06/17 08:45:21;;;;;;;6.03;4.13;;;;;;;;;;5093066;28;20031;-64
2023/06/17 08:47:47;;;;;;;10.00;5.13;;;;;;;;;;5092018;28;20103;-64
2023/06/17 08:50:12;;;;;;;7.95;5.25;;;;;;;;;;5092831;28;20124;-63
2023/06/17 08:52:38;;;;;;;9.07;4.28;;;;;;;;;;5091997;28;20024;-64
2023/06/17 08:55:04;;;;;;;6.93;4.30;;;;;;;;;;5092617;28;20036;-64
2023/06/17 08:57:29;;;;;;;6.88;5.05;;;;;;;;;;5092525;28;20019;-65
2023/06/17 08:59:55;;;;;;;15.13;4.90;;;;;;;;;;5092081;28;20157;-65
2023/06/17 09:02:21;;;;;;;8.32;4.68;;;;;;;;;;5091706;28;20028;-64
2023/06/17 09:04:46;;;;;;;8.10;4.60;;;;;;;;;;5092470;28;20047;-65
2023/06/17 09:07:12;;;;;;;13.07;5.03;;;;;;;;;;5092244;28;20019;-64
2023/06/17 09:09:38;;;;;;;7.10;4.68;;;;;;;;;;5091885;28;20266;-64
2023/06/17 09:12:05;;;;;;;5.68;4.63;;;;;;;;;;5091714;28;20028;-64
2023/06/17 09:14:30;;;;;;;7.43;4.35;;;;;;;;;;5091897;28;20048;-64
2023/06/17 09:16:56;;;;;;;9.05;4.70;;;;;;;;;;5092268;28;20060;-64
2023/06/17 09:19:22;;;;;;;15.00;5.25;;;;;;;;;;5092066;28;20119;-64
2023/06/17 09:21:47;;;;;;;7.25;4.53;;;;;;;;;;5090766;28;20074;-63
2023/06/17 09:24:13;;;;;;;6.60;4.88;;;;;;;;;;5091694;28;20060;-64
2023/06/17 09:26:42;;;;;;;9.63;4.60;;;;;;;;;;5092123;28;20115;-64
2023/06/17 09:29:08;;;;;;;6.95;4.60;;;;;;;;;;5091939;28;20038;-64
2023/06/17 09:31:46;;;;;;;6.85;4.75;;;;;;;;;;5092047;28;20024;-65
2023/06/17 09:34:11;;;;;;;12.05;4.82;;;;;;;;;;5091932;28;20034;-64
2023/06/17 09:36:40;;;;;;;7.25;4.07;;;;;;;;;;5091507;28;20390;-64
2023/06/17 09:39:05;;;;;;;8.40;5.10;;;;;;;;;;5092129;28;20023;-64
2023/06/17 09:41:35;;;;;;;13.73;5.03;;;;;;;;;;5092202;28;20023;-65
2023/06/17 09:44:00;;;;;;;10.50;5.28;;;;;;;;;;5091701;28;20058;-65
2023/06/17 09:46:29;;;;;;;7.63;4.93;;;;;;;;;;5091252;28;20059;-64
2023/06/17 09:48:55;;;;;;;8.27;4.78;;;;;;;;;;5091160;28;20099;-64
2023/06/17 09:51:21;;;;;;;7.90;4.97;;;;;;;;;;5085159;28;20123;-64
2023/06/17 09:53:49;;;;;;;7.28;4.90;;;;;;;;;;5086080;28;20036;-64
2023/06/17 09:56:14;;;;;;;6.93;4.70;;;;;;;;;;5091926;28;20059;-64
2023/06/17 09:58:42;;;;;;;6.50;4.85;;;;;;;;;;5091025;28;20358;-64
2023/06/17 10:01:08;;;;;;;6.05;4.75;;;;;;;;;;5090468;28;20032;-64
2023/06/17 10:03:34;;;;;;;8.02;4.40;;;;;;;;;;5089950;28;20032;-65
2023/06/17 10:06:03;;;;;;;9.20;3.78;;;;;;;;;;5091335;28;20153;-64
2023/06/17 10:08:29;;;;;;;7.55;4.50;;;;;;;;;;5091196;28;20111;-62
2023/06/17 10:10:57;;;;;;;7.03;4.70;;;;;;;;;;5090656;28;20023;-64
2023/06/17 10:13:23;;;;;;;8.23;5.18;;;;;;;;;;5090035;28;20467;-63
2023/06/17 10:15:48;;;;;;;7.63;4.80;;;;;;;;;;5086435;28;20052;-64
2023/06/17 10:18:14;;;;;;;12.77;5.43;;;;;;;;;;5090785;28;20096;-64
2023/06/17 10:20:40;;;;;;;5.72;4.35;;;;;;;;;;5072986;28;20086;-64
2023/06/17 10:23:05;;;;;;;7.50;4.57;;;;;;;;;;5091115;28;20032;-63
2023/06/17 10:25:32;;;;;;;6.20;4.30;;;;;;;;;;5091276;28;20031;-64
2023/06/17 10:27:58;;;;;;;9.10;4.65;;;;;;;;;;5090053;28;20027;-65
2023/06/17 10:30:26;;;;;;;7.22;4.22;;;;;;;;;;5090995;28;20020;-64
2023/06/17 10:32:56;;;;;;;8.02;5.53;;;;;;;;;;5090681;28;20074;-64
2023/06/17 10:35:21;;;;;;;10.00;5.00;;;;;;;;;;5091232;28;20016;-65
2023/06/17 10:37:50;;;;;;;9.47;4.10;;;;;;;;;;5091298;28;20035;-64
2023/06/17 10:40:25;;;;;;;7.40;4.55;;;;;;;;;;5091572;28;20757;-64
2023/06/17 10:42:58;;;;;;;9.82;4.25;;;;;;;;;;5091152;28;20024;-63
2023/06/17 10:45:24;;;;;;;7.75;4.03;;;;;;;;;;5085917;28;20081;-64
2023/06/17 10:47:49;;;;;;;7.28;4.05;;;;;;;;;;5094370;28;20019;-65
2023/06/17 10:50:14;;;;;;;7.82;4.82;;;;;;;;;;5094183;28;20047;-64
2023/06/17 10:52:40;;;;;;;6.90;4.63;;;;;;;;;;5094254;28;20026;-63
2023/06/17 10:55:05;;;;;;;8.35;4.82;;;;;;;;;;5094871;28;20265;-64
2023/06/17 10:57:31;;;;;;;7.28;4.90;;;;;;;;;;5093938;28;20064;-64
2023/06/17 11:00:00;;;;;;;6.68;4.82;;;;;;;;;;5082258;28;20044;-63
2023/06/17 11:02:26;;;;;;;8.02;5.13;;;;;;;;;;5092626;28;20089;-64
2023/06/17 11:04:51;;;;;;;7.32;4.55;;;;;;;;;;5094234;28;20020;-64
2023/06/17 11:07:24;;;;;;;6.68;4.38;;;;;;;;;;5094423;28;20024;-64
2023/06/17 11:09:49;;;;;;;8.45;4.45;;;;;;;;;;5093620;28;20024;-64
2023/06/17 11:12:16;;;;;;;8.53;5.33;;;;;;;;;;5094561;28;20028;-63
2023/06/17 11:14:44;;;;;;;6.85;4.20;;;;;;;;;;5093143;28;20027;-63
2023/06/17 11:17:09;;;;;;;9.20;4.60;;;;;;;;;;5092951;28;20039;-63
2023/06/17 11:19:35;;;;;;;5.20;4.00;;;;;;;;;;5093512;28;20462;-63
2023/06/17 11:22:03;;;;;;;6.73;4.60;;;;;;;;;;5093991;28;20450;-63
2023/06/17 11:24:28;;;;;;;7.97;4.65;;;;;;;;;;5092616;28;20282;-65
2023/06/17 11:26:54;;;;;;;7.65;4.50;;;;;;;;;;5093845;28;20493;-65
2023/06/17 11:29:20;;;;;;;8.55;5.07;;;;;;;;;;5093346;28;20800;-67
2023/06/17 11:31:46;;;;;;;5.82;4.53;;;;;;;;;;5080951;28;20108;-65
2023/06/17 11:34:11;;;;;;;6.68;4.82;;;;;;;;;;5093080;28;20047;-64
2023/06/17 11:36:36;;;;;;;6.10;4.55;;;;;;;;;;5094028;28;20039;-64
2023/06/17 11:39:02;;;;;;;7.20;4.88;;;;;;;;;;5093573;28;20035;-64
2023/06/17 11:41:28;;;;;;;9.00;4.65;;;;;;;;;;5094249;28;20113;-64
2023/06/17 11:43:53;;;;;;;13.05;4.45;;;;;;;;;;5090567;28;20086;-64
2023/06/17 11:46:22;;;;;;;6.80;4.43;;;;;;;;;;5079738;28;20020;-63
2023/06/17 11:48:48;;;;;;;7.35;3.88;;;;;;;;;;5094044;28;20073;-64
2023/06/17 11:51:17;;;;;;;5.75;4.22;;;;;;;;;;5092112;28;20028;-64
2023/06/17 11:53:44;;;;;;;7.90;4.97;;;;;;;;;;5092709;28;20023;-64
2023/06/17 11:56:09;;;;;;;7.60;4.40;;;;;;;;;;5093574;28;20063;-64
2023/06/17 11:58:37;;;;;;;6.30;4.63;;;;;;;;;;5093379;28;20044;-64
2023/06/17 12:01:03;;;;;;;7.78;4.47;;;;;;;;;;5082690;28;20374;-63
2023/06/17 12:03:28;;;;;;;7.13;4.78;;;;;;;;;;5093091;28;20016;-64
2023/06/17 12:05:54;;;;;;;5.50;4.20;;;;;;;;;;5092952;28;20036;-65
2023/06/17 12:08:19;;;;;;;6.65;4.50;;;;;;;;;;5083508;28;20019;-64
2023/06/17 12:10:44;;;;;;;8.23;5.10;;;;;;;;;;5092952;28;20024;-64
2023/06/17 12:13:13;;;;;;;7.63;4.15;;;;;;;;;;5092417;28;20032;-65
2023/06/17 12:15:38;;;;;;;9.77;4.32;;;;;;;;;;5090371;28;20501;-67
2023/06/17 12:18:10;;;;;;;5.82;4.63;;;;;;;;;;5092657;28;20047;-66
2023/06/17 12:20:36;;;;;;;7.30;4.63;;;;;;;;;;5083029;28;20044;-64
2023/06/17 12:23:02;;;;;;;6.13;4.20;;;;;;;;;;5092572;28;20074;-64
2023/06/17 12:25:27;;;;;;;5.20;4.38;;;;;;;;;;5092830;28;20032;-67
2023/06/17 12:27:53;;;;;;;12.47;4.93;;;;;;;;;;5093318;28;20363;-64
2023/06/17 12:30:18;;;;;;;10.80;4.37;;;;;;;;;;5090842;28;20290;-64
2023/06/17 12:32:43;;;;;;;7.78;4.53;;;;;;;;;;5081758;28;20024;-64
2023/06/17 12:35:14;;;;;;;8.48;4.38;;;;;;;;;;5077624;28;20252;-65
2023/06/17 12:37:40;;;;;;;9.15;4.65;;;;;;;;;;5056709;28;20051;-65
2023/06/17 12:40:06;;;;;;;7.82;5.25;;;;;;;;;;5050150;28;20078;-65
2023/06/17 12:42:31;;;;;;;9.65;5.13;;;;;;;;;;5065696;28;20017;-65
2023/06/17 12:44:57;;;;;;;8.63;4.80;;;;;;;;;;5090169;28;20517;-65
2023/06/17 12:47:23;;;;;;;5.40;4.40;;;;;;;;;;5085859;28;20519;-64
2023/06/17 12:49:48;;;;;;;10.95;4.80;;;;;;;;;;5092354;28;20605;-65
2023/06/17 12:52:14;;;;;;;6.97;4.43;;;;;;;;;;5091254;28;20024;-64
2023/06/17 12:54:42;;;;;;;9.27;4.60;;;;;;;;;;5092134;28;20103;-64
2023/06/17 12:57:07;;;;;;;8.95;4.28;;;;;;;;;;5092124;28;20031;-65
2023/06/17 12:59:33;;;;;;;8.90;4.38;;;;;;;;;;5092149;28;20103;-65
2023/06/17 13:01:58;;;;;;;5.47;4.40;;;;;;;;;;5092592;28;20028;-63
2023/06/17 13:04:24;;;;;;;5.73;4.07;;;;;;;;;;5091950;28;20019;-64
2023/06/17 13:06:49;;;;;;;6.75;4.40;;;;;;;;;;5092433;28;20620;-63
2023/06/17 13:09:15;;;;;;;8.13;5.25;;;;;;;;;;5092446;28;20031;-63
2023/06/17 13:11:42;;;;;;;8.00;5.00;;;;;;;;;;5091978;28;20039;-64
2023/06/17 13:14:07;;;;;;;8.65;4.85;;;;;;;;;;5091438;28;20028;-63
2023/06/17 13:16:33;;;;;;;7.45;4.45;;;;;;;;;;5091820;28;20364;-63
2023/06/17 13:18:58;;;;;;;6.47;4.93;;;;;;;;;;5091530;28;20546;-64
2023/06/17 13:21:24;;;;;;;6.20;4.83;;;;;;;;;;5092056;28;20326;-64
2023/06/17 13:23:49;;;;;;;7.55;4.90;;;;;;;;;;5091571;28;20077;-64
2023/06/17 13:26:16;;;;;;;6.82;4.82;;;;;;;;;;5091844;28;20060;-63
2023/06/17 13:28:41;;;;;;;6.85;5.15;;;;;;;;;;5091543;28;20027;-64
2023/06/17 13:31:06;;;;;;;9.53;4.43;;;;;;;;;;5091699;28;20024;-63
2023/06/17 13:33:32;;;;;;;5.93;4.30;;;;;;;;;;5091763;28;20282;-64
2023/06/17 13:35:57;;;;;;;5.90;4.18;;;;;;;;;;5091032;28;20624;-64
2023/06/17 13:38:23;;;;;;;6.63;4.33;;;;;;;;;;5091349;28;20035;-64
2023/06/17 13:40:48;;;;;;;6.35;4.75;;;;;;;;;;5092104;28;20399;-64
2023/06/17 13:43:13;;;;;;;5.43;4.00;;;;;;;;;;5077915;28;20039;-63
2023/06/17 13:45:39;;;;;;;7.30;5.50;;;;;;;;;;5091546;28;20266;-64
2023/06/17 13:48:04;;;;;;;7.60;4.68;;;;;;;;;;5091511;28;20020;-63
2023/06/17 13:50:30;;;;;;;7.78;4.50;;;;;;;;;;5091245;28;20058;-63
2023/06/17 13:52:55;;;;;;;6.15;5.03;;;;;;;;;;5091346;28;20417;-65
2023/06/17 13:55:21;;;;;;;8.57;4.80;;;;;;;;;;5082109;28;20066;-65
2023/06/17 13:57:46;;;;;;;5.82;4.35;;;;;;;;;;5090488;28;20032;-64
2023/06/17 14:00:12;;;;;;;13.20;5.00;;;;;;;;;;5090913;28;20028;-66
2023/06/17 14:02:37;;;;;;;7.60;4.47;;;;;;;;;;5081898;28;20073;-64
2023/06/17 14:05:03;;;;;;;7.50;4.47;;;;;;;;;;5091659;28;20127;-64
2023/06/17 14:07:29;;;;;;;7.05;4.32;;;;;;;;;;5088001;28;20277;-64
2023/06/17 14:09:55;;;;;;;12.15;4.72;;;;;;;;;;5091290;28;20016;-64
2023/06/17 14:12:20;;;;;;;9.75;4.93;;;;;;;;;;5090612;28;20402;-64
2023/06/17 14:14:46;;;;;;;8.50;4.88;;;;;;;;;;5086003;28;21461;-64
2023/06/17 14:17:11;;;;;;;8.43;5.28;;;;;;;;;;5090797;28;20024;-63
2023/06/17 14:19:36;;;;;;;7.07;4.87;;;;;;;;;;5090627;28;20028;-64
2023/06/17 14:22:05;;;;;;;6.53;4.40;;;;;;;;;;5087263;28;20390;-64
2023/06/17 14:24:30;;;;;;;10.10;4.50;;;;;;;;;;5085637;28;20270;-63
2023/06/17 14:27:28;;;;;;;6.13;4.67;;;;;;;;;;5090297;28;20157;-63
2023/06/17 14:29:54;;;;;;;6.68;4.38;;;;;;;;;;5038069;28;20024;-64
2023/06/17 14:32:19;;;;;;;8.83;5.27;;;;;;;;;;5090786;28;20027;-63